createdAt,value
2022-12-16T00:02:17.310Z,65.70
2022-12-16T00:04:43.646Z,67.27
2022-12-16T00:07:09.962Z,70.37
2022-12-16T00:09:36.297Z,59.63
2022-12-16T00:12:02.615Z,65.33
2022-12-16T00:14:29.319Z,64.60
2022-12-16T00:16:55.636Z,67.47
2022-12-16T00:19:21.967Z,59.30
2022-12-16T00:21:48.282Z,62.57
2022-12-16T00:24:14.588Z,64.33
2022-12-16T00:26:40.913Z,64.47
2022-12-16T00:29:07.286Z,59.20
2022-12-16T00:31:33.684Z,60.97
2022-12-16T00:34:00.060Z,65.07
2022-12-16T00:36:26.404Z,68.27
2022-12-16T00:38:52.751Z,60.70
2022-12-16T00:41:19.862Z,66.90
2022-12-16T00:43:46.296Z,64.27
2022-12-16T00:46:12.670Z,66.80
2022-12-16T00:48:39.045Z,60.73
2022-12-16T00:51:05.710Z,62.10
2022-12-16T00:53:32.349Z,65.67
2022-12-16T00:55:58.892Z,67.53
2022-12-16T00:58:25.214Z,69.47
2022-12-16T01:00:51.548Z,62.23
2022-12-16T01:03:21.728Z,65.83
2022-12-16T01:05:48.503Z,65.57
2022-12-16T01:08:14.813Z,63.60
2022-12-16T01:10:41.127Z,60.73
2022-12-16T01:13:07.442Z,62.20
2022-12-16T01:15:34.830Z,65.90
2022-12-16T01:18:01.161Z,64.93
2022-12-16T01:20:27.527Z,62.93
2022-12-16T01:22:53.830Z,71.07
2022-12-16T01:25:21.240Z,65.53
2022-12-16T01:27:47.574Z,65.00
2022-12-16T01:30:13.895Z,65.07
2022-12-16T01:32:40.244Z,70.13
2022-12-16T01:35:18.109Z,63.40
2022-12-16T01:37:52.855Z,61.00
2022-12-16T01:40:21.165Z,64.77
2022-12-16T01:42:47.586Z,68.60
2022-12-16T01:45:13.907Z,68.53
2022-12-16T01:47:40.233Z,65.83
2022-12-16T01:50:06.549Z,65.30
2022-12-16T01:52:33.033Z,58.43
2022-12-16T01:54:59.350Z,66.97
2022-12-16T01:57:25.741Z,65.00
2022-12-16T01:59:52.051Z,71.83
2022-12-16T02:02:18.786Z,61.87
2022-12-16T02:05:05.207Z,60.67
2022-12-16T02:07:31.567Z,69.23
2022-12-16T02:09:57.871Z,60.90
2022-12-16T02:12:24.196Z,59.93
2022-12-16T02:14:50.637Z,59.50
2022-12-16T02:17:17.089Z,64.30
2022-12-16T02:19:43.426Z,60.60
2022-12-16T02:22:09.747Z,62.07
2022-12-16T02:24:36.068Z,65.03
2022-12-16T02:27:02.386Z,66.37
2022-12-16T02:29:28.757Z,65.43
2022-12-16T02:31:55.255Z,64.70
2022-12-16T02:34:21.597Z,66.60
2022-12-16T02:36:48.463Z,64.87
2022-12-16T02:39:15.572Z,63.37
2022-12-16T02:41:42.445Z,62.60
2022-12-16T02:44:08.777Z,62.17
2022-12-16T02:46:35.133Z,65.83
2022-12-16T02:49:01.481Z,62.10
2022-12-16T02:51:27.827Z,67.00
2022-12-16T02:53:54.152Z,63.90
2022-12-16T02:56:20.756Z,65.30
2022-12-16T02:58:47.105Z,68.00
2022-12-16T03:01:13.498Z,71.77
2022-12-16T03:03:43.666Z,68.53
2022-12-16T03:06:10.559Z,60.10
2022-12-16T03:08:36.900Z,67.07
2022-12-16T03:11:03.513Z,64.13
2022-12-16T03:13:30.046Z,62.70
2022-12-16T03:15:56.536Z,71.77
2022-12-16T03:18:22.851Z,65.33
2022-12-16T03:20:49.150Z,62.77
2022-12-16T03:23:15.473Z,65.37
2022-12-16T03:25:41.775Z,66.00
2022-12-16T03:28:08.098Z,61.07
2022-12-16T03:30:34.483Z,58.17
2022-12-16T03:33:00.838Z,59.57
2022-12-16T03:35:27.183Z,61.03
2022-12-16T03:37:53.485Z,61.93
2022-12-16T03:40:19.814Z,62.83
2022-12-16T03:42:46.136Z,57.40
2022-12-16T03:45:12.501Z,57.10
2022-12-16T03:47:38.816Z,59.40
2022-12-16T03:50:05.135Z,54.57
2022-12-16T03:52:31.448Z,56.60
2022-12-16T03:54:57.775Z,57.73
2022-12-16T03:57:24.122Z,57.57
2022-12-16T03:59:50.426Z,55.83
2022-12-16T04:02:16.828Z,52.93
2022-12-16T04:04:43.323Z,54.27
2022-12-16T04:07:21.966Z,55.83
2022-12-16T04:09:48.269Z,53.10
2022-12-16T04:12:33.401Z,54.63
2022-12-16T04:15:38.234Z,52.03
2022-12-16T04:18:23.103Z,53.53
2022-12-16T04:21:11.610Z,53.23
2022-12-16T04:23:56.533Z,54.97
2022-12-16T04:26:22.877Z,55.70
2022-12-16T04:28:49.178Z,50.87
2022-12-16T04:31:15.557Z,49.47
2022-12-16T04:34:00.670Z,51.70
2022-12-16T04:36:45.700Z,50.13
2022-12-16T04:39:30.836Z,46.20
2022-12-16T04:42:16.043Z,50.33
2022-12-16T04:45:01.189Z,46.07
2022-12-16T04:47:46.176Z,45.93
2022-12-16T04:50:31.182Z,49.13
2022-12-16T04:53:16.133Z,48.40
2022-12-16T04:56:04.319Z,46.30
2022-12-16T04:58:50.232Z,47.43
2022-12-16T05:01:35.339Z,46.23
2022-12-16T05:04:20.457Z,46.07
2022-12-16T05:07:05.387Z,46.23
2022-12-16T05:09:50.317Z,45.70
2022-12-16T05:12:35.444Z,44.77
2022-12-16T05:15:20.478Z,39.83
2022-12-16T05:18:05.239Z,42.33
2022-12-16T05:20:50.233Z,46.37
2022-12-16T05:23:35.571Z,41.87
2022-12-16T05:26:20.888Z,47.47
2022-12-16T05:29:06.186Z,44.03
2022-12-16T05:31:51.142Z,48.80
2022-12-16T05:34:36.150Z,44.50
2022-12-16T05:37:21.030Z,45.10
2022-12-16T05:40:06.017Z,41.90
2022-12-16T05:42:51.011Z,41.87
2022-12-16T05:45:35.861Z,40.93
2022-12-16T05:48:20.953Z,42.97
2022-12-16T05:51:05.838Z,44.97
2022-12-16T05:53:50.746Z,40.53
2022-12-16T05:56:35.669Z,41.63
2022-12-16T05:59:20.685Z,43.80
2022-12-16T06:02:05.714Z,38.10
2022-12-16T06:04:50.909Z,42.80
2022-12-16T06:07:35.848Z,45.47
2022-12-16T06:10:20.707Z,40.43
2022-12-16T06:13:05.608Z,47.13
2022-12-16T06:15:50.810Z,49.17
2022-12-16T06:18:36.058Z,49.73
2022-12-16T06:21:21.038Z,50.47
2022-12-16T06:24:06.086Z,51.03
2022-12-16T06:26:50.928Z,50.27
2022-12-16T06:29:35.835Z,52.60
2022-12-16T06:32:20.925Z,50.50
2022-12-16T06:35:05.903Z,52.03
2022-12-16T06:37:50.854Z,40.80
2022-12-16T06:40:35.726Z,38.47
2022-12-16T06:43:20.815Z,48.27
2022-12-16T06:46:05.872Z,41.83
2022-12-16T06:48:50.885Z,42.43
2022-12-16T06:51:35.918Z,45.80
2022-12-16T06:54:20.808Z,43.50
2022-12-16T06:57:05.734Z,40.07
2022-12-16T06:59:54.299Z,39.00
2022-12-16T07:02:39.548Z,47.50
2022-12-16T07:05:24.869Z,45.13
2022-12-16T07:08:09.930Z,44.27
2022-12-16T07:10:55.727Z,44.17
2022-12-16T07:13:42.908Z,47.03
2022-12-16T07:16:27.794Z,46.77
2022-12-16T07:19:13.112Z,43.37
2022-12-16T07:21:58.060Z,49.83
2022-12-16T07:24:42.985Z,48.80
2022-12-16T07:27:27.937Z,49.90
2022-12-16T07:30:12.883Z,47.53
2022-12-16T07:32:57.734Z,49.83
2022-12-16T07:35:44.506Z,50.90
2022-12-16T07:38:29.569Z,46.43
2022-12-16T07:41:14.676Z,48.27
2022-12-16T07:43:59.804Z,48.20
2022-12-16T07:46:44.812Z,50.73
2022-12-16T07:49:29.683Z,52.00
2022-12-16T07:52:14.549Z,54.23
2022-12-16T07:54:59.642Z,58.80
2022-12-16T07:57:44.856Z,59.03
2022-12-16T08:00:29.707Z,55.20
2022-12-16T08:03:14.692Z,54.13
2022-12-16T08:05:59.876Z,57.27
2022-12-16T08:08:44.759Z,57.87
2022-12-16T08:11:29.635Z,57.93
2022-12-16T08:14:14.458Z,59.07
2022-12-16T08:16:59.455Z,65.40
2022-12-16T08:19:44.780Z,56.70
2022-12-16T08:22:30.023Z,58.50
2022-12-16T08:25:14.980Z,61.00
2022-12-16T08:27:59.894Z,63.50
2022-12-16T08:30:44.896Z,57.50
2022-12-16T08:33:30.144Z,61.87
2022-12-16T08:36:14.990Z,66.50
2022-12-16T08:38:59.899Z,67.43
2022-12-16T08:41:44.883Z,72.20
2022-12-16T08:44:29.710Z,73.00
2022-12-16T08:47:14.654Z,71.10
2022-12-16T08:50:02.020Z,77.77
2022-12-16T08:52:47.710Z,73.23
2022-12-16T08:55:32.761Z,77.67
2022-12-16T08:58:17.640Z,77.37
2022-12-16T09:01:07.110Z,78.30
2022-12-16T09:03:52.837Z,75.20
2022-12-16T09:06:40.584Z,74.07
2022-12-16T09:09:26.061Z,76.57
2022-12-16T09:12:11.004Z,76.03
2022-12-16T09:14:56.093Z,81.80
2022-12-16T09:17:41.644Z,73.57
2022-12-16T09:20:26.494Z,71.30
2022-12-16T09:23:11.533Z,76.53
2022-12-16T09:25:56.491Z,77.33
2022-12-16T09:28:41.666Z,78.53
2022-12-16T09:31:26.607Z,71.80
2022-12-16T09:34:11.940Z,80.90
2022-12-16T09:36:56.963Z,77.33
2022-12-16T09:39:42.365Z,78.87
2022-12-16T09:42:27.333Z,75.07
2022-12-16T09:45:12.183Z,73.97
2022-12-16T09:47:57.147Z,66.77
2022-12-16T09:50:42.083Z,63.00
2022-12-16T09:53:27.055Z,60.90
2022-12-16T09:56:12.008Z,66.17
2022-12-16T09:58:56.906Z,57.03
2022-12-16T10:01:41.885Z,64.77
2022-12-16T10:04:27.109Z,60.77
2022-12-16T10:07:12.391Z,58.77
2022-12-16T10:09:57.506Z,69.33
2022-12-16T10:12:45.431Z,62.33
2022-12-16T10:15:30.630Z,67.03
2022-12-16T10:18:15.739Z,62.90
2022-12-16T10:21:00.971Z,62.37
2022-12-16T10:23:45.891Z,60.87
2022-12-16T10:26:30.926Z,62.17
2022-12-16T10:29:15.849Z,60.30
2022-12-16T10:32:00.764Z,64.30
2022-12-16T10:34:45.782Z,62.87
2022-12-16T10:37:30.952Z,58.90
2022-12-16T10:40:15.828Z,57.00
2022-12-16T10:43:00.647Z,66.53
2022-12-16T10:45:45.657Z,61.37
2022-12-16T10:48:30.872Z,62.03
2022-12-16T10:51:16.288Z,62.23
2022-12-16T10:54:01.489Z,63.97
2022-12-16T10:56:46.334Z,56.77
2022-12-16T10:59:31.650Z,61.03
2022-12-16T11:02:16.673Z,61.83
2022-12-16T11:05:01.919Z,62.90
2022-12-16T11:07:46.864Z,64.73
2022-12-16T11:10:31.828Z,63.73
2022-12-16T11:13:16.743Z,61.93
2022-12-16T11:16:01.666Z,69.87
2022-12-16T11:18:47.054Z,60.47
2022-12-16T11:21:31.921Z,68.27
2022-12-16T11:24:16.950Z,63.13
2022-12-16T11:27:01.925Z,62.67
2022-12-16T11:29:46.851Z,65.43
2022-12-16T11:32:31.786Z,59.53
2022-12-16T11:35:16.596Z,67.70
2022-12-16T11:38:01.604Z,62.93
2022-12-16T11:40:46.727Z,60.80
2022-12-16T11:43:32.153Z,62.37
2022-12-16T11:46:17.414Z,63.23
2022-12-16T11:49:02.750Z,58.27
2022-12-16T11:51:47.799Z,68.23
2022-12-16T11:54:32.714Z,65.97
2022-12-16T11:57:17.523Z,66.87
2022-12-16T12:00:02.562Z,63.50
2022-12-16T12:02:47.710Z,63.33
2022-12-16T12:05:32.914Z,59.67
2022-12-16T12:08:18.182Z,63.03
2022-12-16T12:11:03.053Z,57.50
2022-12-16T12:13:47.947Z,67.57
2022-12-16T12:16:33.000Z,64.23
2022-12-16T12:19:18.200Z,62.83
2022-12-16T12:22:03.107Z,60.43
2022-12-16T12:24:47.974Z,63.63
2022-12-16T12:27:33.107Z,68.03
2022-12-16T12:30:18.074Z,66.37
2022-12-16T12:33:23.259Z,67.93
2022-12-16T12:36:11.382Z,64.47
2022-12-16T12:38:56.215Z,62.47
2022-12-16T12:41:41.312Z,62.13
2022-12-16T12:44:36.458Z,65.40
2022-12-16T12:47:27.245Z,61.83
2022-12-16T12:50:12.250Z,61.77
2022-12-16T12:52:57.173Z,62.33
2022-12-16T12:55:42.178Z,63.87
2022-12-16T12:58:27.350Z,65.60
2022-12-16T13:01:12.613Z,64.63
2022-12-16T13:03:57.825Z,60.63
2022-12-16T13:06:42.673Z,59.70
2022-12-16T13:09:27.633Z,61.60
2022-12-16T13:12:12.536Z,65.10
2022-12-16T13:14:57.587Z,62.87
2022-12-16T13:17:42.409Z,65.10
2022-12-16T13:20:27.406Z,64.03
2022-12-16T13:23:12.721Z,68.50
2022-12-16T13:25:57.894Z,62.80
2022-12-16T13:28:42.822Z,62.90
2022-12-16T13:31:27.814Z,59.23
2022-12-16T13:34:13.090Z,63.37
2022-12-16T13:36:58.384Z,60.40
2022-12-16T13:39:43.403Z,69.20
2022-12-16T13:42:28.323Z,65.77
2022-12-16T13:45:13.356Z,67.00
2022-12-16T13:47:58.425Z,66.23
2022-12-16T13:50:43.334Z,66.47
2022-12-16T13:53:28.212Z,64.77
2022-12-16T13:56:13.159Z,64.10
2022-12-16T13:58:58.258Z,65.63
2022-12-16T14:01:44.946Z,62.80
2022-12-16T14:04:30.005Z,60.80
2022-12-16T14:07:17.618Z,64.17
2022-12-16T14:10:06.457Z,68.80
2022-12-16T14:12:51.391Z,66.57
2022-12-16T14:15:36.358Z,65.83
2022-12-16T14:18:21.234Z,65.07
2022-12-16T14:21:06.258Z,67.27
2022-12-16T14:23:58.780Z,71.53
2022-12-16T14:26:43.988Z,65.30
2022-12-16T14:29:28.923Z,66.13
2022-12-16T14:32:14.048Z,67.93
2022-12-16T14:34:59.327Z,65.50
2022-12-16T14:37:44.362Z,66.40
2022-12-16T14:40:29.276Z,65.37
2022-12-16T14:43:14.249Z,59.37
2022-12-16T14:45:59.220Z,74.53
2022-12-16T14:48:49.622Z,67.23
2022-12-16T14:51:34.919Z,71.27
2022-12-16T14:54:19.733Z,71.27
2022-12-16T14:57:04.685Z,63.63
2022-12-16T14:59:49.587Z,69.07
2022-12-16T15:02:34.730Z,68.50
2022-12-16T15:05:19.978Z,67.53
2022-12-16T15:08:04.909Z,67.77
2022-12-16T15:10:49.912Z,71.43
2022-12-16T15:13:35.134Z,69.43
2022-12-16T15:16:20.583Z,68.50
2022-12-16T15:19:05.873Z,75.77
2022-12-16T15:21:50.838Z,70.27
2022-12-16T15:24:36.286Z,71.20
2022-12-16T15:27:21.184Z,65.37
2022-12-16T15:30:06.095Z,67.50
2022-12-16T15:32:50.899Z,71.70
2022-12-16T15:35:35.851Z,68.30
2022-12-16T15:38:20.664Z,64.87
2022-12-16T15:41:25.517Z,67.20
2022-12-16T15:44:12.293Z,66.10
2022-12-16T15:46:57.225Z,65.50
2022-12-16T15:49:42.166Z,68.77
2022-12-16T15:52:27.072Z,71.40
2022-12-16T15:55:12.113Z,67.87
2022-12-16T15:57:57.088Z,68.57
2022-12-16T16:00:42.252Z,66.30
2022-12-16T16:03:27.508Z,67.33
2022-12-16T16:06:12.874Z,74.17
2022-12-16T16:08:57.770Z,65.30
2022-12-16T16:11:42.797Z,76.60
2022-12-16T16:14:27.882Z,74.23
2022-12-16T16:17:12.892Z,73.10
2022-12-16T16:20:03.197Z,69.60
2022-12-16T16:22:48.778Z,71.33
2022-12-16T16:25:33.810Z,72.53
2022-12-16T16:28:18.688Z,65.27
2022-12-16T16:31:03.582Z,70.10
2022-12-16T16:33:48.970Z,66.90
2022-12-16T16:36:34.044Z,72.13
2022-12-16T16:39:18.952Z,68.83
2022-12-16T16:42:03.813Z,73.07
2022-12-16T16:44:48.862Z,69.33
2022-12-16T16:47:33.729Z,72.50
2022-12-16T16:50:19.549Z,72.27
2022-12-16T16:53:04.640Z,71.97
2022-12-16T16:55:49.570Z,68.23
2022-12-16T16:58:34.540Z,69.43
2022-12-16T17:01:19.538Z,69.53
2022-12-16T17:04:04.970Z,73.17
2022-12-16T17:07:06.803Z,66.80
2022-12-16T17:09:51.798Z,70.03
2022-12-16T17:12:36.646Z,66.70
2022-12-16T17:15:21.707Z,69.60
2022-12-16T17:18:06.717Z,70.77
2022-12-16T17:20:53.239Z,68.33
2022-12-16T17:23:38.252Z,69.33
2022-12-16T17:26:23.276Z,68.60
2022-12-16T17:29:08.217Z,67.67
2022-12-16T17:31:53.157Z,67.03
2022-12-16T17:34:38.284Z,65.43
2022-12-16T17:37:23.261Z,68.90
2022-12-16T17:40:08.221Z,66.47
2022-12-16T17:42:53.216Z,67.50
2022-12-16T17:45:38.243Z,72.27
2022-12-16T17:48:23.139Z,74.00
2022-12-16T17:51:08.214Z,66.27
2022-12-16T17:53:58.660Z,66.47
2022-12-16T17:56:46.171Z,65.27
2022-12-16T17:59:31.443Z,69.17
2022-12-16T18:02:16.661Z,67.83
2022-12-16T18:05:02.121Z,74.63
2022-12-16T18:07:47.083Z,65.80
2022-12-16T18:10:32.094Z,68.93
2022-12-16T18:13:17.038Z,69.57
2022-12-16T18:16:02.221Z,62.10
2022-12-16T18:18:47.513Z,65.63
2022-12-16T18:21:32.448Z,71.47
2022-12-16T18:24:17.494Z,73.33
2022-12-16T18:27:02.391Z,66.83
2022-12-16T18:29:47.535Z,64.03
2022-12-16T18:32:35.266Z,68.03
2022-12-16T18:35:20.552Z,69.13
2022-12-16T18:38:05.684Z,65.67
2022-12-16T18:40:50.551Z,63.73
2022-12-16T18:43:35.956Z,65.60
2022-12-16T18:46:21.430Z,66.70
2022-12-16T18:49:06.654Z,65.50
2022-12-16T18:51:51.674Z,68.97
2022-12-16T18:54:36.719Z,69.93
2022-12-16T18:57:21.635Z,64.83
2022-12-16T19:00:06.691Z,59.33
2022-12-16T19:02:51.803Z,66.43
2022-12-16T19:05:37.192Z,70.07
2022-12-16T19:08:22.113Z,64.90
2022-12-16T19:11:07.068Z,67.37
2022-12-16T19:13:52.002Z,64.73
2022-12-16T19:16:37.200Z,70.30
2022-12-16T19:19:22.443Z,67.23
2022-12-16T19:22:07.347Z,75.27
2022-12-16T19:24:52.162Z,62.67
2022-12-16T19:27:37.099Z,64.83
2022-12-16T19:30:22.265Z,66.37
2022-12-16T19:33:07.190Z,72.20
2022-12-16T19:35:53.732Z,64.43
2022-12-16T19:38:38.674Z,63.77
2022-12-16T19:41:23.753Z,72.63
2022-12-16T19:44:08.557Z,72.17
2022-12-16T19:46:55.979Z,63.37
2022-12-16T19:49:44.338Z,64.13
2022-12-16T19:52:46.425Z,65.13
2022-12-16T19:55:31.347Z,63.37
2022-12-16T19:58:16.593Z,65.10
2022-12-16T20:01:01.457Z,63.10
2022-12-16T20:03:47.207Z,64.17
2022-12-16T20:06:32.829Z,63.17
2022-12-16T20:09:18.032Z,62.43
2022-12-16T20:12:03.022Z,64.50
2022-12-16T20:14:47.928Z,70.03
2022-12-16T20:17:32.892Z,67.27
2022-12-16T20:20:37.993Z,63.77
2022-12-16T20:23:23.014Z,64.63
2022-12-16T20:26:07.894Z,69.73
2022-12-16T20:28:52.707Z,65.47
2022-12-16T20:31:41.208Z,63.27
2022-12-16T20:34:26.259Z,70.43
2022-12-16T20:37:11.311Z,69.73
2022-12-16T20:43:01.208Z,67.97
2022-12-16T20:45:46.047Z,64.60
2022-12-16T20:48:30.969Z,63.80
2022-12-16T20:54:20.883Z,63.67
2022-12-16T20:57:08.262Z,63.33
2022-12-16T20:59:57.615Z,62.60
2022-12-16T21:02:42.936Z,61.83
2022-12-16T21:05:28.051Z,61.57
2022-12-16T21:08:13.005Z,67.87
2022-12-16T21:10:58.036Z,69.43
2022-12-16T21:13:43.749Z,62.60
2022-12-16T21:16:29.225Z,67.50
2022-12-16T21:19:14.309Z,69.33
2022-12-16T21:21:59.205Z,64.63
2022-12-16T21:24:44.601Z,68.10
2022-12-16T21:27:29.537Z,63.60
2022-12-16T21:30:14.674Z,68.77
2022-12-16T21:33:00.012Z,64.93
2022-12-16T21:35:44.867Z,63.87
2022-12-16T21:38:29.772Z,64.07
2022-12-16T21:41:14.848Z,62.03
2022-12-16T21:44:00.112Z,63.93
2022-12-16T21:46:45.070Z,62.50
2022-12-16T21:49:30.371Z,65.27
2022-12-16T21:52:15.780Z,67.10
2022-12-16T21:55:00.633Z,65.27
2022-12-16T21:57:45.537Z,63.93
2022-12-16T22:00:30.488Z,67.37
2022-12-16T22:03:15.526Z,60.20
2022-12-16T22:06:00.416Z,62.33
2022-12-16T22:08:45.230Z,61.43
2022-12-16T22:11:30.114Z,68.33
2022-12-16T22:14:15.019Z,64.27
2022-12-16T22:17:00.211Z,65.87
2022-12-16T22:19:45.407Z,63.00
2022-12-16T22:22:30.379Z,58.40
2022-12-16T22:25:15.345Z,62.00
2022-12-16T22:28:00.303Z,59.73
2022-12-16T22:30:45.386Z,61.87
2022-12-16T22:33:30.587Z,62.63
2022-12-16T22:36:15.326Z,60.20
2022-12-16T22:36:21.427Z,68.53
2022-12-16T22:39:00.382Z,60.60
2022-12-16T22:41:45.226Z,59.10
2022-12-16T22:44:30.417Z,64.53
2022-12-16T22:47:15.378Z,59.37
2022-12-16T22:50:00.220Z,62.63
2022-12-16T22:52:45.170Z,58.53
2022-12-16T22:55:29.978Z,64.53
2022-12-16T22:58:19.587Z,53.80
2022-12-16T23:01:04.631Z,60.43
2022-12-16T23:03:49.580Z,56.93
2022-12-16T23:06:34.774Z,59.37
2022-12-16T23:09:19.827Z,52.13
2022-12-16T23:12:04.757Z,59.23
2022-12-16T23:14:49.825Z,55.70
2022-12-16T23:17:34.699Z,56.10
2022-12-16T23:20:19.719Z,59.57
2022-12-16T23:23:04.645Z,57.50
2022-12-16T23:25:49.604Z,57.20
2022-12-16T23:28:34.526Z,54.37
2022-12-16T23:31:19.594Z,61.47
2022-12-16T23:34:04.887Z,59.97
2022-12-16T23:36:49.929Z,57.40
2022-12-16T23:39:34.859Z,58.83
2022-12-16T23:42:19.800Z,59.50
2022-12-16T23:45:04.669Z,59.83
2022-12-16T23:47:49.475Z,57.83
2022-12-16T23:50:34.446Z,58.13
2022-12-16T23:53:19.224Z,55.90
2022-12-16T23:56:04.180Z,53.90
2022-12-16T23:58:49.141Z,57.17
